Time;durP1;ratioP1;P1;durP2;ratioP2;P2;SDS_P1;SDS_P2;PMS_P1;PMS_P2;Temp;Humidity;BMP_temperature;BMP_pressure;BME280_temperature;BME280_humidity;BME280_pressure;Samples;Min_cycle;Max_cycle;Signal;HPM_P1;HPM_P2
2022/03/26 00:02:08;;;;;;;;;;;;;;;11.73;51.52;102450.50;4364169;32;19951;-69
2022/03/26 00:04:54;;;;;;;;;;;;;;;11.67;51.55;102448.53;4365041;32;19990;-69
2022/03/26 00:07:21;;;;;;;;;;;;;;;11.76;51.27;102455.34;4363391;32;20028;-69
2022/03/26 00:09:51;;;;;;;;;;;;;;;11.65;51.71;102450.94;4362938;32;19973;-69
2022/03/26 00:12:17;;;;;;;;;;;;;;;10.51;54.57;102447.56;4362489;32;20034;-69
2022/03/26 00:14:42;;;;;;;;;;;;;;;11.30;52.36;102451.75;4364606;32;20028;-69
2022/03/26 00:17:29;;;;;;;;;;;;;;;11.16;52.57;102457.37;4363789;32;19951;-69
2022/03/26 00:20:04;;;;;;;;;;;;;;;11.04;53.51;102454.13;4363464;32;20063;-69
2022/03/26 00:22:33;;;;;;;;;;;;;;;10.66;54.84;102455.66;4362967;32;20033;-68
2022/03/26 00:25:05;;;;;;;;;;;;;;;10.97;53.37;102457.75;4362755;32;19951;-68
2022/03/26 00:27:54;;;;;;;;;;;;;;;10.95;53.62;102465.78;4363430;32;19994;-68
2022/03/26 00:30:19;;;;;;;;;;;;;;;11.07;53.17;102462.59;4361636;32;20004;-68
2022/03/26 00:33:08;;;;;;;;;;;;;;;10.93;53.38;102456.13;4362781;32;20017;-68
2022/03/26 00:35:34;;;;;;;;;;;;;;;10.94;53.29;102469.00;4363810;32;19993;-68
2022/03/26 00:37:59;;;;;;;;;;;;;;;11.02;53.11;102459.38;4364948;32;20234;-68
2022/03/26 00:40:25;;;;;;;;;;;;;;;10.96;53.38;102458.16;4362563;32;20343;-68
2022/03/26 00:42:50;;;;;;;;;;;;;;;10.95;53.54;102465.00;4361677;32;19998;-68
2022/03/26 00:45:17;;;;;;;;;;;;;;;10.97;53.53;102463.38;4363733;32;19955;-68
2022/03/26 00:48:03;;;;;;;;;;;;;;;10.98;53.43;102464.97;4363234;32;20494;-68
2022/03/26 00:51:01;;;;;;;;;;;;;;;10.89;53.58;102458.16;4362909;32;20008;-68
2022/03/26 00:53:27;;;;;;;;;;;;;;;10.88;53.80;102464.97;4364238;32;20012;-68
2022/03/26 00:56:12;;;;;;;;;;;;;;;10.74;54.17;102459.31;4363457;32;21025;-68
2022/03/26 00:58:56;;;;;;;;;;;;;;;10.82;54.07;102469.38;4362971;32;19968;-68
2022/03/26 01:01:40;;;;;;;;;;;;;;;10.67;54.74;102462.09;4362428;32;19972;-68
2022/03/26 01:04:28;;;;;;;;;;;;;;;10.62;54.55;102459.69;4344179;32;19995;-68
2022/03/26 01:07:12;;;;;;;;;;;;;;;9.94;56.24;102468.97;4343929;32;21172;-68
2022/03/26 01:09:57;;;;;;;;;;;;;;;10.47;55.23;102470.09;4344059;32;20126;-68
2022/03/26 01:12:41;;;;;;;;;;;;;;;10.71;54.42;102474.19;4346554;32;20017;-68
2022/03/26 01:15:26;;;;;;;;;;;;;;;10.03;56.70;102478.66;4291839;33;21676;-68
2022/03/26 01:18:22;;;;;;;;;;;;;;;10.23;56.12;102467.16;4289916;33;20044;-68
2022/03/26 01:21:06;;;;;;;;;;;;;;;10.36;55.52;102474.84;4292432;33;20598;-68
2022/03/26 01:23:51;;;;;;;;;;;;;;;9.78;57.14;102479.72;4292925;33;20390;-68
2022/03/26 01:26:35;;;;;;;;;;;;;;;10.28;56.01;102480.84;4295971;33;19974;-68
2022/03/26 01:29:19;;;;;;;;;;;;;;;10.06;56.27;102475.09;4290298;33;20116;-68
2022/03/26 01:32:03;;;;;;;;;;;;;;;9.81;56.90;102478.94;4294571;33;19999;-68
2022/03/26 01:34:47;;;;;;;;;;;;;;;10.19;56.22;102469.16;4299117;33;19966;-68
2022/03/26 01:37:32;;;;;;;;;;;;;;;10.33;55.49;102472.81;4324988;33;20151;-68
2022/03/26 01:40:22;;;;;;;;;;;;;;;10.27;55.52;102470.81;4264897;33;20001;-68
2022/03/26 01:43:06;;;;;;;;;;;;;;;10.30;55.42;102469.97;4263970;33;20387;-68
2022/03/26 01:45:51;;;;;;;;;;;;;;;9.43;58.19;102466.22;4276010;33;20122;-68
2022/03/26 01:48:37;;;;;;;;;;;;;;;10.09;56.63;102460.25;4314438;33;20496;-68
2022/03/26 01:51:14;;;;;;;;;;;;;;;9.91;57.15;102467.75;4327530;32;19955;-68
2022/03/26 01:53:42;;;;;;;;;;;;;;;9.46;58.46;102465.44;4362594;32;19984;-68
2022/03/26 01:56:07;;;;;;;;;;;;;;;9.97;56.89;102460.56;4363067;32;20010;-68
2022/03/26 01:58:33;;;;;;;;;;;;;;;10.00;56.85;102471.03;4363864;32;19990;-68
2022/03/26 02:00:59;;;;;;;;;;;;;;;9.99;56.68;102471.41;4363249;32;19959;-68
2022/03/26 02:03:25;;;;;;;;;;;;;;;10.20;56.47;102473.56;4362714;32;20463;-68
2022/03/26 02:05:52;;;;;;;;;;;;;;;10.01;56.61;102466.22;4362256;32;20001;-68
2022/03/26 02:08:18;;;;;;;;;;;;;;;9.21;59.25;102466.41;4362981;32;19990;-68
2022/03/26 02:10:44;;;;;;;;;;;;;;;9.15;59.10;102476.38;4361718;32;19954;-68
2022/03/26 02:13:10;;;;;;;;;;;;;;;10.19;55.83;102466.34;4362294;32;20362;-68
2022/03/26 02:15:37;;;;;;;;;;;;;;;9.18;58.94;102472.81;4363528;32;19998;-68
2022/03/26 02:18:03;;;;;;;;;;;;;;;9.69;57.84;102470.81;4363881;32;19991;-68
2022/03/26 02:20:30;;;;;;;;;;;;;;;9.09;59.26;102464.72;4361510;32;19974;-68
2022/03/26 02:22:58;;;;;;;;;;;;;;;9.01;59.16;102463.00;4360230;32;20265;-68
2022/03/26 02:25:23;;;;;;;;;;;;;;;10.80;54.33;102469.78;4363187;32;19988;-68
2022/03/26 02:27:49;;;;;;;;;;;;;;;11.14;53.39;102467.44;4367608;32;19967;-68
2022/03/26 02:30:15;;;;;;;;;;;;;;;10.67;53.73;102467.72;4365074;32;21770;-68
2022/03/26 02:32:40;;;;;;;;;;;;;;;10.80;54.16;102472.59;4365504;32;20018;-69
2022/03/26 02:35:25;;;;;;;;;;;;;;;9.20;58.81;102473.22;4366016;32;19969;-69
2022/03/26 02:38:09;;;;;;;;;;;;;;;8.92;59.85;102467.31;4364014;32;19989;-69
2022/03/26 02:40:55;;;;;;;;;;;;;;;9.74;58.40;102468.47;4301705;33;20011;-68
2022/03/26 02:43:41;;;;;;;;;;;;;;;10.68;54.47;102466.53;4272414;33;20012;-69
2022/03/26 02:46:25;;;;;;;;;;;;;;;10.13;54.46;102455.44;4275254;33;19998;-70
2022/03/26 02:49:09;;;;;;;;;;;;;;;10.57;54.31;102460.06;4275158;33;19971;-70
2022/03/26 02:51:53;;;;;;;;;;;;;;;10.19;55.70;102460.69;4273293;33;20373;-70
2022/03/26 02:54:37;;;;;;;;;;;;;;;8.92;59.09;102459.72;4272863;33;20064;-70
2022/03/26 02:57:22;;;;;;;;;;;;;;;10.20;55.46;102456.69;4275880;33;19996;-68
2022/03/26 03:00:07;;;;;;;;;;;;;;;10.15;55.45;102455.03;4274490;33;19979;-68
2022/03/26 03:02:51;;;;;;;;;;;;;;;8.73;59.38;102450.69;4276399;33;19960;-70
2022/03/26 03:05:36;;;;;;;;;;;;;;;9.12;58.61;102457.50;4266249;33;20012;-71
2022/03/26 03:08:22;;;;;;;;;;;;;;;9.00;58.51;102452.16;4272024;33;19996;-71
2022/03/26 03:11:08;;;;;;;;;;;;;;;9.46;58.22;102459.81;4273326;33;19963;-71
2022/03/26 03:13:52;;;;;;;;;;;;;;;9.57;56.95;102455.06;4272319;33;19968;-71
2022/03/26 03:16:36;;;;;;;;;;;;;;;9.61;57.58;102452.28;4275958;33;20374;-71
2022/03/26 03:19:21;;;;;;;;;;;;;;;9.72;57.58;102453.16;4345952;32;20416;-71
2022/03/26 03:22:05;;;;;;;;;;;;;;;8.52;60.73;102459.66;4364603;32;19988;-71
2022/03/26 03:24:55;;;;;;;;;;;;;;;8.47;60.91;102453.59;4335658;32;20068;-70
2022/03/26 03:27:47;;;;;;;;;;;;;;;8.40;61.18;102447.91;4332260;32;20017;-71
2022/03/26 03:30:23;;;;;;;;;;;;;;;8.57;60.08;102456.53;4331455;32;19964;-71
2022/03/26 03:33:07;;;;;;;;;;;;;;;9.32;57.76;102451.25;4332414;32;20336;-70
2022/03/26 03:35:51;;;;;;;;;;;;;;;9.18;58.38;102455.94;4335352;32;19978;-71
2022/03/26 03:38:42;;;;;;;;;;;;;;;9.32;57.62;102461.69;4302093;33;20449;-71
2022/03/26 03:41:26;;;;;;;;;;;;;;;9.40;57.52;102463.38;4303862;33;20002;-71
2022/03/26 03:44:10;;;;;;;;;;;;;;;8.48;60.22;102461.63;4303510;33;19970;-71
2022/03/26 03:46:54;;;;;;;;;;;;;;;9.11;58.63;102467.13;4302805;33;20002;-71
2022/03/26 03:49:38;;;;;;;;;;;;;;;8.36;60.66;102463.87;4302489;33;20022;-71
2022/03/26 03:52:21;;;;;;;;;;;;;;;8.56;60.15;102473.75;4304537;33;19967;-71
2022/03/26 03:55:12;;;;;;;;;;;;;;;8.39;60.67;102463.09;4275344;33;20096;-71
2022/03/26 03:58:00;;;;;;;;;;;;;;;8.76;59.71;102473.19;4257231;33;20004;-71
2022/03/26 04:01:04;;;;;;;;;;;;;;;8.84;60.16;102463.63;4230484;33;19986;-71
2022/03/26 04:03:48;;;;;;;;;;;;;;;9.66;57.08;102478.03;4231578;33;20182;-71
2022/03/26 04:06:32;;;;;;;;;;;;;;;8.77;58.93;102471.19;4231636;33;20016;-71
2022/03/26 04:09:16;;;;;;;;;;;;;;;9.43;57.67;102473.81;4228592;33;20015;-71
2022/03/26 04:12:00;;;;;;;;;;;;;;;9.32;58.37;102478.53;4230673;33;20045;-71
2022/03/26 04:14:45;;;;;;;;;;;;;;;9.84;56.39;102464.09;4232129;33;20339;-71
2022/03/26 04:17:11;;;;;;;;;;;;;;;8.68;59.31;102474.28;4230585;33;20144;-71
2022/03/26 04:19:37;;;;;;;;;;;;;;;8.25;61.34;102471.38;4229467;33;20114;-71
2022/03/26 04:22:08;;;;;;;;;;;;;;;8.58;60.08;102474.97;4238910;33;20004;-70
2022/03/26 04:24:52;;;;;;;;;;;;;;;8.49;60.48;102479.25;4263150;33;20027;-71
2022/03/26 04:27:43;;;;;;;;;;;;;;;8.16;61.79;102475.22;4311848;33;20014;-71
2022/03/26 04:30:28;;;;;;;;;;;;;;;9.18;58.78;102476.41;4345311;32;20097;-71
2022/03/26 04:33:18;;;;;;;;;;;;;;;9.12;58.86;102483.59;4343592;32;20006;-71
2022/03/26 04:35:44;;;;;;;;;;;;;;;8.41;60.49;102478.41;4344350;32;20102;-71
2022/03/26 04:38:10;;;;;;;;;;;;;;;8.85;59.47;102482.09;4349484;32;20385;-71
2022/03/26 04:40:36;;;;;;;;;;;;;;;8.89;59.23;102482.13;4362325;32;20037;-71
2022/03/26 04:43:04;;;;;;;;;;;;;;;9.30;57.56;102473.31;4363254;32;20758;-71
2022/03/26 04:45:34;;;;;;;;;;;;;;;8.54;59.35;102479.75;4363473;32;20374;-71
2022/03/26 04:48:00;;;;;;;;;;;;;;;8.17;60.53;102473.22;4363035;32;20002;-71
2022/03/26 04:50:52;;;;;;;;;;;;;;;8.31;59.94;102484.66;4359941;32;20045;-71
2022/03/26 04:53:40;;;;;;;;;;;;;;;9.13;58.32;102482.38;4331185;32;20054;-71
2022/03/26 04:56:27;;;;;;;;;;;;;;;7.81;61.95;102473.91;4310652;33;20377;-71
2022/03/26 04:58:55;;;;;;;;;;;;;;;7.82;61.94;102478.31;4331894;32;20011;-71
2022/03/26 05:01:55;;;;;;;;;;;;;;;7.86;61.92;102473.59;4323830;33;19999;-71
2022/03/26 05:04:43;;;;;;;;;;;;;;;7.77;62.40;102475.88;4315021;33;20066;-71
2022/03/26 05:07:49;;;;;;;;;;;;;;;7.66;62.58;102474.88;4315860;33;19951;-71
2022/03/26 05:10:28;;;;;;;;;;;;;;;7.77;61.39;102473.06;4315470;33;20045;-71
2022/03/26 05:13:12;;;;;;;;;;;;;;;7.81;61.90;102473.91;4318280;33;20379;-71
2022/03/26 05:15:59;;;;;;;;;;;;;;;7.95;62.41;102474.91;4316165;33;19994;-71
2022/03/26 05:18:25;;;;;;;;;;;;;;;8.67;59.38;102480.28;4316810;33;20331;-71
2022/03/26 05:21:26;;;;;;;;;;;;;;;8.92;58.64;102472.94;4278816;33;19972;-71
2022/03/26 05:23:52;;;;;;;;;;;;;;;8.92;58.29;102482.19;4277282;33;19948;-71
2022/03/26 05:26:21;;;;;;;;;;;;;;;8.75;58.61;102488.41;4279792;33;19956;-71
2022/03/26 05:28:46;;;;;;;;;;;;;;;8.54;59.78;102481.75;4281954;33;20046;-71
2022/03/26 05:31:23;;;;;;;;;;;;;;;8.31;60.61;102484.66;4341258;32;19955;-71
2022/03/26 05:33:58;;;;;;;;;;;;;;;8.68;58.85;102487.53;4360291;32;20026;-71
2022/03/26 05:36:43;;;;;;;;;;;;;;;8.34;60.60;102491.53;4360177;32;19970;-70
2022/03/26 05:39:09;;;;;;;;;;;;;;;7.55;62.91;102482.31;4362246;32;19982;-71
2022/03/26 05:42:01;;;;;;;;;;;;;;;8.16;61.21;102491.22;4360277;32;20383;-71
2022/03/26 05:44:47;;;;;;;;;;;;;;;8.45;59.93;102493.25;4362395;32;20002;-71
2022/03/26 05:47:12;;;;;;;;;;;;;;;8.45;59.87;102501.69;4362071;32;19985;-71
2022/03/26 05:50:01;;;;;;;;;;;;;;;8.56;59.87;102502.59;4362703;32;20378;-71
2022/03/26 05:52:33;;;;;;;;;;;;;;;8.45;59.94;102506.47;4363312;32;19970;-71
2022/03/26 05:55:03;;;;;;;;;;;;;;;7.90;61.83;102503.31;4363153;32;19982;-70
2022/03/26 05:57:29;;;;;;;;;;;;;;;8.50;60.28;102509.75;4363652;32;19990;-70
2022/03/26 06:00:20;;;;;;;;;;;;;;;8.48;60.23;102512.16;4360708;32;20040;-70
2022/03/26 06:02:47;;;;;;;;;;;;;;;8.57;59.40;102515.47;4365116;32;20451;-71
2022/03/26 06:05:13;;;;;;;;;;;;;;;7.67;62.05;102510.16;4365950;32;19994;-71
2022/03/26 06:07:38;;;;;;;;;;;;;;;8.22;60.63;102516.97;4364520;32;19991;-71
2022/03/26 06:10:04;;;;;;;;;;;;;;;8.50;59.59;102523.78;4365135;32;20345;-71
2022/03/26 06:12:55;;;;;;;;;;;;;;;7.72;62.16;102518.22;4365504;32;20417;-71
2022/03/26 06:15:21;;;;;;;;;;;;;;;8.54;59.55;102518.22;4366481;32;20304;-71
2022/03/26 06:18:05;;;;;;;;;;;;;;;7.63;62.42;102520.47;4366986;32;21617;-71
2022/03/26 06:20:49;;;;;;;;;;;;;;;7.44;63.16;102520.56;4363651;32;19992;-71
2022/03/26 06:23:19;;;;;;;;;;;;;;;7.65;62.98;102524.53;4366552;32;19994;-71
2022/03/26 06:26:07;;;;;;;;;;;;;;;7.76;62.45;102519.88;4364417;32;20341;-71
2022/03/26 06:28:34;;;;;;;;;;;;;;;8.95;58.59;102536.75;4366620;32;19997;-71
2022/03/26 06:30:59;;;;;;;;;;;;;;;8.96;58.10;102541.19;4364415;32;19966;-71
2022/03/26 06:33:45;;;;;;;;;;;;;;;9.36;57.39;102539.19;4366997;32;19969;-70
2022/03/26 06:36:21;;;;;;;;;;;;;;;9.52;56.63;102539.75;4364330;32;19969;-71
2022/03/26 06:39:01;;;;;;;;;;;;;;;8.88;58.03;102545.91;4366318;32;19994;-71
2022/03/26 06:41:39;;;;;;;;;;;;;;;9.33;57.14;102544.78;4366218;32;19989;-71
2022/03/26 06:44:26;;;;;;;;;;;;;;;9.57;56.52;102541.38;4359913;32;20116;-71
2022/03/26 06:46:54;;;;;;;;;;;;;;;9.46;56.49;102549.75;4367015;32;20442;-71
2022/03/26 06:49:46;;;;;;;;;;;;;;;9.57;56.34;102555.44;4336202;32;20379;-71
2022/03/26 06:52:32;;;;;;;;;;;;;;;9.67;56.09;102554.75;4360874;32;20001;-71
2022/03/26 06:55:02;;;;;;;;;;;;;;;9.79;56.01;102563.66;4366186;32;20040;-71
2022/03/26 06:57:27;;;;;;;;;;;;;;;9.84;56.20;102563.31;4363857;32;19977;-71
2022/03/26 06:59:54;;;;;;;;;;;;;;;9.94;55.14;102562.59;4366695;32;20268;-71
2022/03/26 07:02:20;;;;;;;;;;;;;;;8.61;59.58;102560.41;4365241;32;19990;-71
2022/03/26 07:04:51;;;;;;;;;;;;;;;9.94;56.19;102571.03;4364589;32;20336;-71
2022/03/26 07:07:17;;;;;;;;;;;;;;;10.40;54.82;102568.53;4364849;32;20493;-70
2022/03/26 07:09:42;;;;;;;;;;;;;;;10.41;54.93;102575.00;4363893;32;20002;-70
2022/03/26 07:12:12;;;;;;;;;;;;;;;10.63;54.03;102573.91;4363905;32;19955;-70
2022/03/26 07:14:38;;;;;;;;;;;;;;;10.75;53.87;102568.75;4366119;32;19982;-70
2022/03/26 07:17:04;;;;;;;;;;;;;;;10.13;55.67;102573.59;4364391;32;19989;-71
2022/03/26 07:19:51;;;;;;;;;;;;;;;9.40;57.05;102581.38;4364474;32;21308;-71
2022/03/26 07:22:38;;;;;;;;;;;;;;;9.61;56.97;102578.78;4364361;32;19946;-71
2022/03/26 07:25:06;;;;;;;;;;;;;;;9.57;57.67;102578.75;4367039;32;19959;-71
2022/03/26 07:27:33;;;;;;;;;;;;;;;9.67;57.64;102578.03;4366109;32;19967;-71
2022/03/26 07:30:04;;;;;;;;;;;;;;;11.16;54.53;102575.72;4363248;32;19993;-71
2022/03/26 07:32:30;;;;;;;;;;;;;;;10.83;54.23;102572.41;4363680;32;19962;-71
2022/03/26 07:35:25;;;;;;;;;;;;;;;10.06;56.32;102579.19;4361191;32;20500;-71
2022/03/26 07:37:53;;;;;;;;;;;;;;;11.23;53.54;102572.91;4363205;32;20342;-71
2022/03/26 07:40:36;;;;;;;;;;;;;;;11.67;52.01;102575.44;4364091;32;19997;-71
2022/03/26 07:43:04;;;;;;;;;;;;;;;12.09;51.27;102583.91;4365882;32;19990;-71
2022/03/26 07:45:48;;;;;;;;;;;;;;;12.41;50.38;102581.84;4364426;32;20363;-71
2022/03/26 07:48:32;;;;;;;;;;;;;;;11.39;52.79;102581.81;4365571;32;19969;-71
2022/03/26 07:51:16;;;;;;;;;;;;;;;12.22;50.96;102581.47;4361885;32;20305;-71
2022/03/26 07:54:03;;;;;;;;;;;;;;;12.73;49.49;102578.91;4355128;32;20025;-71
2022/03/26 07:56:40;;;;;;;;;;;;;;;12.89;49.33;102582.09;4350377;32;19969;-71
2022/03/26 07:59:27;;;;;;;;;;;;;;;11.81;52.33;102575.44;4352496;32;19966;-70
2022/03/26 08:01:57;;;;;;;;;;;;;;;11.79;52.25;102580.69;4352478;32;19973;-71
2022/03/26 08:04:41;;;;;;;;;;;;;;;12.45;51.48;102581.84;4355049;32;20001;-71
2022/03/26 08:07:27;;;;;;;;;;;;;;;12.18;51.49;102591.97;4352247;32;19969;-71
2022/03/26 08:10:11;;;;;;;;;;;;;;;12.33;51.02;102580.22;4349294;32;20160;-71
2022/03/26 08:12:55;;;;;;;;;;;;;;;12.65;50.37;102580.97;4351724;32;19973;-71
2022/03/26 08:15:21;;;;;;;;;;;;;;;12.83;50.27;102578.06;4353115;32;19954;-71
2022/03/26 08:17:58;;;;;;;;;;;;;;;12.95;50.14;102586.88;4355105;32;20038;-71
2022/03/26 08:20:26;;;;;;;;;;;;;;;13.29;49.08;102587.16;4337372;32;20010;-71
2022/03/26 08:22:52;;;;;;;;;;;;;;;13.45;49.11;102590.28;4356042;32;20008;-71
2022/03/26 08:28:06;;;;;;;;;;;;;;;13.87;48.16;102592.81;4352334;32;20617;-71
2022/03/26 08:30:35;;;;;;;;;;;;;;;14.22;48.11;102595.31;4354359;32;20027;-71
2022/03/26 08:33:11;;;;;;;;;;;;;;;14.58;47.85;102590.94;4350750;32;19978;-71
2022/03/26 08:36:02;;;;;;;;;;;;;;;14.99;47.20;102591.66;4348157;32;20017;-71
2022/03/26 08:38:53;;;;;;;;;;;;;;;15.25;46.95;102595.78;4342124;32;20356;-71
2022/03/26 08:41:20;;;;;;;;;;;;;;;15.56;46.32;102588.88;4351919;32;19980;-71
2022/03/26 08:43:49;;;;;;;;;;;;;;;15.94;45.75;102593.91;4356010;32;19954;-71
2022/03/26 08:46:17;;;;;;;;;;;;;;;16.25;44.56;102605.16;4364387;32;20004;-71
2022/03/26 08:48:43;;;;;;;;;;;;;;;16.70;44.16;102601.50;4364305;32;20404;-71
2022/03/26 08:51:08;;;;;;;;;;;;;;;17.07;43.69;102606.81;4360964;32;20048;-71
2022/03/26 08:53:34;;;;;;;;;;;;;;;17.61;42.26;102605.19;4362569;32;19982;-71
2022/03/26 08:56:00;;;;;;;;;;;;;;;17.91;42.22;102600.44;4361947;32;19977;-71
2022/03/26 08:58:26;;;;;;;;;;;;;;;18.17;41.34;102602.19;4365502;32;19991;-71
2022/03/26 09:00:52;;;;;;;;;;;;;;;18.51;41.37;102605.38;4363041;32;20083;-69
2022/03/26 09:03:21;;;;;;;;;;;;;;;18.92;40.44;102611.12;4363354;32;20006;-71
2022/03/26 09:05:49;;;;;;;;;;;;;;;19.46;39.52;102612.78;4361973;32;19994;-71
2022/03/26 09:08:16;;;;;;;;;;;;;;;19.23;39.89;102612.25;4362865;32;19970;-69
2022/03/26 09:10:43;;;;;;;;;;;;;;;20.09;38.58;102607.06;4363467;32;19991;-71
2022/03/26 09:13:10;;;;;;;;;;;;;;;20.23;38.20;102609.47;4363228;32;20354;-71
2022/03/26 09:15:35;;;;;;;;;;;;;;;20.86;37.00;102610.03;4363695;32;19958;-71
2022/03/26 09:18:02;;;;;;;;;;;;;;;21.07;36.39;102611.31;4363525;32;19990;-71
2022/03/26 09:20:27;;;;;;;;;;;;;;;20.84;36.56;102604.00;4363246;32;19955;-71
2022/03/26 09:22:53;;;;;;;;;;;;;;;20.72;37.05;102607.72;4362995;32;20310;-71
2022/03/26 09:25:20;;;;;;;;;;;;;;;20.83;37.08;102615.91;4361010;32;20014;-72
2022/03/26 09:27:46;;;;;;;;;;;;;;;20.97;36.84;102612.53;4363239;32;19959;-71
2022/03/26 09:30:12;;;;;;;;;;;;;;;21.21;36.50;102613.66;4364504;32;20577;-71
2022/03/26 09:32:44;;;;;;;;;;;;;;;21.34;36.19;102615.19;4362915;32;20400;-71
2022/03/26 09:35:13;;;;;;;;;;;;;;;21.49;36.15;102612.56;4364513;32;20030;-71
2022/03/26 09:37:40;;;;;;;;;;;;;;;22.39;34.10;102617.81;4364940;32;19998;-71
2022/03/26 09:40:07;;;;;;;;;;;;;;;22.13;34.89;102605.03;4365708;32;19982;-71
2022/03/26 09:42:34;;;;;;;;;;;;;;;22.34;34.68;102619.25;4366161;32;19954;-71
2022/03/26 09:44:59;;;;;;;;;;;;;;;22.28;34.62;102614.62;4366107;32;20008;-71
2022/03/26 09:47:27;;;;;;;;;;;;;;;22.91;33.79;102626.16;4365073;32;19960;-71
2022/03/26 09:49:54;;;;;;;;;;;;;;;22.46;34.31;102617.53;4365921;32;20049;-71
2022/03/26 09:52:21;;;;;;;;;;;;;;;23.01;33.57;102627.78;4366187;32;19990;-70
2022/03/26 09:54:47;;;;;;;;;;;;;;;23.31;33.06;102621.03;4367057;32;19994;-70
2022/03/26 09:57:15;;;;;;;;;;;;;;;23.60;32.65;102629.91;4366424;32;20407;-71
2022/03/26 09:59:41;;;;;;;;;;;;;;;23.70;32.61;102631.47;4367978;32;20365;-70
2022/03/26 10:02:28;;;;;;;;;;;;;;;23.58;32.58;102617.28;4364159;32;19991;-70
2022/03/26 10:04:53;;;;;;;;;;;;;;;23.41;33.30;102631.25;4365390;32;20005;-70
2022/03/26 10:07:28;;;;;;;;;;;;;;;23.99;32.25;102628.78;4365509;32;20695;-70
2022/03/26 10:09:55;;;;;;;;;;;;;;;23.93;32.36;102616.31;4363869;32;19986;-70
2022/03/26 10:12:25;;;;;;;;;;;;;;;24.18;32.10;102633.19;4365558;32;20058;-70
2022/03/26 10:14:54;;;;;;;;;;;;;;;24.30;31.98;102628.47;4365447;32;19985;-70
2022/03/26 10:25:11;;;;;;;;;;;;;;;25.60;29.78;102625.09;3952695;32;15724598;-71
2022/03/26 10:27:59;;;;;;;;;;;;;;;25.16;30.12;102616.41;4430238;32;19980;-70
2022/03/26 10:33:32;;;;;;;;;;;;;;;25.80;29.29;102630.16;4433305;32;19997;-71
2022/03/26 10:36:00;;;;;;;;;;;;;;;25.86;29.13;102625.25;4428026;32;19949;-71
2022/03/26 10:38:32;;;;;;;;;;;;;;;25.99;28.90;102628.62;4431661;32;20442;-71
2022/03/26 10:41:06;;;;;;;;;;;;;;;25.91;29.18;102627.41;4429665;32;19950;-71
2022/03/26 10:44:05;;;;;;;;;;;;;;;26.22;28.49;102628.47;4431299;32;19973;-71
2022/03/26 10:46:52;;;;;;;;;;;;;;;26.67;27.97;102621.22;4432265;32;20030;-71
2022/03/26 10:49:37;;;;;;;;;;;;;;;27.78;26.80;102626.84;4427818;32;20007;-71
2022/03/26 10:52:21;;;;;;;;;;;;;;;26.99;27.70;102628.69;4429235;32;20346;-71
2022/03/26 10:55:14;;;;;;;;;;;;;;;26.99;27.70;102628.69;4429750;32;20215;-71
2022/03/26 10:58:01;;;;;;;;;;;;;;;27.02;27.86;102624.78;4429302;32;20409;-71
2022/03/26 11:00:46;;;;;;;;;;;;;;;26.91;27.89;102625.44;4426369;32;20362;-71
2022/03/26 11:03:31;;;;;;;;;;;;;;;26.85;27.79;102629.59;4432493;32;20033;-71
2022/03/26 11:06:17;;;;;;;;;;;;;;;26.87;27.84;102627.78;4429865;32;20374;-71
2022/03/26 11:09:01;;;;;;;;;;;;;;;26.84;27.87;102627.97;4433431;32;20018;-71
2022/03/26 11:11:48;;;;;;;;;;;;;;;26.65;28.06;102632.47;4428585;32;19968;-71
2022/03/26 11:14:47;;;;;;;;;;;;;;;26.92;27.69;102629.94;4387632;32;19970;-71
2022/03/26 11:17:37;;;;;;;;;;;;;;;26.79;28.18;102631.62;4387318;32;19977;-71
2022/03/26 11:20:37;;;;;;;;;;;;;;;27.28;27.36;102628.50;4386927;32;20104;-71
2022/03/26 11:29:07;;;;;;;;;;;;;;;28.55;25.66;102647.69;3954779;32;15724235;-70
2022/03/26 11:34:31;;;;;;;;;;;;;;;28.63;25.85;102639.28;3951320;32;15722596;-69
2022/03/26 11:37:23;;;;;;;;;;;;;;;28.63;25.85;102639.28;4428656;32;21377;-69
2022/03/26 11:40:07;;;;;;;;;;;;;;;27.77;26.42;102639.75;4428874;32;20273;-70
2022/03/26 11:42:51;;;;;;;;;;;;;;;28.15;26.23;102633.47;4428633;32;20581;-71
2022/03/26 11:51:56;;;;;;;;;;;;;;;28.12;25.51;102640.28;4428864;32;20008;-71
2022/03/26 11:54:40;;;;;;;;;;;;;;;28.67;25.06;102643.53;4429207;32;19991;-71
2022/03/26 11:57:25;;;;;;;;;;;;;;;28.87;24.50;102633.84;4431947;32;20408;-71
2022/03/26 12:00:17;;;;;;;;;;;;;;;29.21;24.29;102640.56;4429666;32;19980;-71
2022/03/26 12:03:01;;;;;;;;;;;;;;;29.16;24.66;102629.72;4432539;32;20295;-71
2022/03/26 12:09:06;;;;;;;;;;;;;;;29.44;24.34;102633.47;4380833;32;19961;-71
2022/03/26 12:12:10;;;;;;;;;;;;;;;29.59;24.01;102619.50;4378587;32;19981;-71
2022/03/26 12:17:42;;;;;;;;;;;;;;;29.55;23.94;102622.66;3952802;32;15722347;-71
2022/03/26 12:20:32;;;;;;;;;;;;;;;29.55;23.94;102622.66;4433488;32;19960;-70
2022/03/26 12:25:58;;;;;;;;;;;;;;;30.54;22.60;102618.84;3952419;32;15727595;-71
2022/03/26 12:28:43;;;;;;;;;;;;;;;30.54;22.60;102618.84;4424997;32;19965;-71
2022/03/26 12:31:28;;;;;;;;;;;;;;;30.63;22.62;102625.16;4425462;32;20027;-71
2022/03/26 12:34:13;;;;;;;;;;;;;;;30.25;23.29;102616.56;4425301;32;19953;-71
2022/03/26 12:37:04;;;;;;;;;;;;;;;30.65;22.97;102618.81;4426301;32;20013;-71
2022/03/26 12:40:00;;;;;;;;;;;;;;;31.01;21.99;102614.66;4369908;32;19958;-71
2022/03/26 12:42:44;;;;;;;;;;;;;;;30.83;22.13;102602.87;4372495;32;20012;-71
2022/03/26 12:45:29;;;;;;;;;;;;;;;31.74;21.00;102609.91;4372737;32;20028;-71
2022/03/26 12:48:13;;;;;;;;;;;;;;;31.75;20.45;102609.34;4373917;32;19961;-71
2022/03/26 12:51:00;;;;;;;;;;;;;;;32.07;20.21;102601.66;4371308;32;20051;-72
2022/03/26 12:53:45;;;;;;;;;;;;;;;32.26;19.54;102599.59;4373259;32;19962;-71
2022/03/26 12:56:29;;;;;;;;;;;;;;;32.57;19.66;102604.78;4374018;32;20043;-71
2022/03/26 12:59:14;;;;;;;;;;;;;;;32.40;19.61;102607.13;4369857;32;20031;-71
2022/03/26 13:01:59;;;;;;;;;;;;;;;32.50;18.68;102598.78;4370122;32;19977;-71
2022/03/26 13:04:43;;;;;;;;;;;;;;;32.75;18.47;102596.59;4372435;32;20445;-71
2022/03/26 13:07:35;;;;;;;;;;;;;;;33.06;18.26;102599.63;4371950;32;20000;-71
2022/03/26 13:10:27;;;;;;;;;;;;;;;33.14;18.42;102591.81;4372300;32;20283;-71
2022/03/26 13:13:12;;;;;;;;;;;;;;;33.23;18.61;102597.25;4370504;32;20025;-71
2022/03/26 13:15:59;;;;;;;;;;;;;;;32.85;18.88;102594.88;4385049;32;20004;-71
2022/03/26 13:19:03;;;;;;;;;;;;;;;32.79;19.16;102588.34;4427442;32;20350;-71
2022/03/26 13:21:49;;;;;;;;;;;;;;;32.12;19.66;102583.31;4427824;32;20030;-71
2022/03/26 13:24:33;;;;;;;;;;;;;;;32.63;19.23;102577.72;4428323;32;19983;-71
2022/03/26 13:27:18;;;;;;;;;;;;;;;33.50;18.05;102580.66;4429896;32;20683;-71
2022/03/26 13:30:09;;;;;;;;;;;;;;;33.54;18.02;102584.03;4424599;32;19976;-71
2022/03/26 13:33:01;;;;;;;;;;;;;;;34.82;16.69;102583.91;4425253;32;19968;-71
2022/03/26 13:35:48;;;;;;;;;;;;;;;35.33;16.22;102573.38;4423554;32;19994;-71
2022/03/26 13:38:36;;;;;;;;;;;;;;;34.52;16.40;102568.87;4416534;32;20053;-71
2022/03/26 13:41:22;;;;;;;;;;;;;;;35.60;15.79;102574.03;4416964;32;20338;-71
2022/03/26 13:44:06;;;;;;;;;;;;;;;35.09;16.37;102573.69;4416459;32;20010;-71
2022/03/26 13:46:51;;;;;;;;;;;;;;;34.65;16.69;102573.91;4415974;32;20063;-71
2022/03/26 13:49:33;;;;;;;;;;;;;;;35.33;15.98;102563.78;4414900;32;20343;-71
2022/03/26 13:52:21;;;;;;;;;;;;;;;35.57;15.78;102572.25;4416082;32;19997;-71
2022/03/26 13:57:59;;;;;;;;;;;;;;;34.76;15.52;102568.59;3954343;32;15722542;-72
2022/03/26 14:00:27;;;;;;;;;;;;;;;34.76;15.52;102568.59;4425567;32;19954;-72
2022/03/26 14:03:12;;;;;;;;;;;;;;;35.21;14.84;102574.19;4426180;32;20052;-70
2022/03/26 14:05:56;;;;;;;;;;;;;;;35.34;14.70;102563.25;4431300;32;19987;-70
2022/03/26 14:08:40;;;;;;;;;;;;;;;36.17;14.76;102576.44;4429830;32;19964;-71
2022/03/26 14:11:23;;;;;;;;;;;;;;;36.99;13.71;102581.19;4429344;32;20590;-71
2022/03/26 14:14:21;;;;;;;;;;;;;;;36.66;14.00;102563.84;4428264;32;19964;-71
2022/03/26 14:17:09;;;;;;;;;;;;;;;35.68;14.77;102554.38;4385642;32;20064;-71
2022/03/26 14:20:00;;;;;;;;;;;;;;;36.44;14.01;102559.41;4372289;32;19960;-71